createdAt,value
2019-05-15T05:11:38.290Z,0.31
2019-05-15T05:21:38.586Z,1.01
2019-05-15T05:31:39.136Z,1.68
2019-05-15T05:41:39.153Z,2.35
2019-05-15T05:51:38.723Z,2.59
2019-05-15T06:01:43.250Z,2.96
2019-05-15T06:11:38.115Z,3.47
2019-05-15T06:21:53.667Z,4.16
2019-05-15T06:31:38.830Z,4.74
2019-05-15T06:41:38.994Z,5.59
2019-05-15T06:51:37.923Z,5.63
2019-05-15T07:01:38.549Z,6.09
2019-05-15T07:11:38.791Z,6.41
2019-05-15T07:21:38.839Z,5.50
2019-05-15T07:31:38.410Z,6.31
2019-05-15T07:41:39.168Z,6.53
2019-05-15T07:51:38.164Z,6.58
2019-05-15T08:01:38.616Z,7.81
2019-05-15T08:11:39.105Z,7.72
2019-05-15T08:21:38.603Z,8.49
2019-05-15T08:31:38.849Z,8.33
2019-05-15T08:41:39.078Z,8.09
2019-05-15T08:51:38.368Z,10.62
2019-05-15T09:01:38.314Z,9.65
2019-05-15T09:11:39.089Z,9.00
2019-05-15T09:21:38.803Z,9.03
2019-05-15T09:31:39.155Z,8.95
2019-05-15T09:41:38.310Z,8.43
2019-05-15T09:51:38.617Z,9.76
2019-05-15T10:01:39.454Z,9.40
2019-05-15T10:11:38.407Z,9.25
2019-05-15T10:21:39.970Z,9.35
2019-05-15T10:31:38.927Z,9.97
2019-05-15T10:41:38.844Z,9.35
2019-05-15T10:51:39.585Z,9.48
2019-05-15T11:01:38.822Z,8.67
2019-05-15T11:11:37.706Z,10.10
2019-05-15T11:21:37.685Z,9.75
2019-05-15T11:31:39.341Z,9.55
2019-05-15T11:41:38.688Z,8.93
2019-05-15T11:51:38.359Z,10.55
2019-05-15T12:01:38.278Z,9.06
2019-05-15T12:11:41.113Z,10.88
2019-05-15T12:21:39.605Z,10.31
2019-05-15T12:31:38.963Z,10.23
2019-05-15T13:01:38.876Z,10.14
2019-05-15T13:11:38.022Z,11.02
2019-05-15T13:21:38.062Z,10.87
2019-05-15T13:31:38.380Z,10.09
2019-05-15T13:41:38.575Z,10.64
2019-05-15T13:51:38.556Z,10.52
2019-05-15T14:01:39.403Z,10.32
2019-05-15T14:11:38.973Z,11.59
2019-05-15T14:21:38.041Z,10.95
2019-05-15T14:31:39.409Z,10.66
2019-05-15T14:41:38.194Z,10.89
2019-05-15T14:51:39.224Z,11.16
2019-05-15T15:01:38.420Z,10.64
2019-05-15T15:11:38.556Z,11.10
2019-05-15T15:21:38.425Z,11.26
2019-05-15T15:31:39.034Z,11.67
2019-05-15T15:41:38.973Z,11.24
2019-05-15T15:51:38.046Z,10.28
2019-05-15T16:01:38.975Z,10.93
2019-05-15T16:11:38.607Z,10.99
2019-05-15T16:21:39.368Z,12.35
2019-05-15T16:31:38.396Z,11.30
2019-05-15T16:41:38.280Z,10.13
2019-05-15T16:51:38.267Z,9.53
2019-05-15T17:01:41.260Z,10.21
2019-05-15T17:11:38.375Z,10.18
2019-05-15T17:21:40.652Z,9.93
2019-05-15T17:31:38.092Z,9.15
2019-05-15T17:41:39.086Z,9.53
2019-05-15T17:51:38.350Z,9.45
2019-05-15T18:01:38.260Z,8.52
2019-05-15T18:11:38.395Z,9.15
2019-05-15T18:21:38.567Z,7.57
2019-05-15T18:31:38.168Z,8.64
2019-05-15T18:41:38.301Z,7.75
2019-05-15T18:51:38.576Z,7.61
2019-05-15T19:01:39.357Z,7.77
